Time;durP1;ratioP1;P1;durP2;ratioP2;P2;SDS_P1;SDS_P2;PMS_P1;PMS_P2;Temp;Humidity;BMP_temperature;BMP_pressure;BME280_temperature;BME280_humidity;BME280_pressure;Samples;Min_cycle;Max_cycle;Signal;HPM_P1;HPM_P2
2021/09/27 00:00:20;;;;;;;;;60.25;50.50;25.10;40.00;;;;;;5136239;27;8858;-68
2021/09/27 00:02:46;;;;;;;;;63.50;52.50;25.20;40.20;;;;;;5133907;27;8806;-67
2021/09/27 00:05:14;;;;;;;;;59.75;49.50;25.10;40.40;;;;;;5135927;27;8756;-67
2021/09/27 00:07:41;;;;;;;;;67.25;55.50;25.10;40.70;;;;;;5135952;27;8870;-69
2021/09/27 00:10:09;;;;;;;;;51.50;44.25;25.00;40.70;;;;;;5132020;27;8759;-67
2021/09/27 00:12:36;;;;;;;;;60.25;49.75;25.00;41.00;;;;;;5135953;27;8799;-67
2021/09/27 00:15:05;;;;;;;;;62.75;51.75;25.00;41.10;;;;;;5135665;27;8811;-67
2021/09/27 00:17:31;;;;;;;;;64.25;53.25;24.90;41.60;;;;;;5135460;27;8756;-66
2021/09/27 00:19:57;;;;;;;;;61.25;50.75;24.80;42.20;;;;;;5135604;27;9449;-67
2021/09/27 00:22:23;;;;;;;;;66.25;54.25;24.80;42.30;;;;;;5135679;27;8844;-68
2021/09/27 00:24:49;;;;;;;;;66.75;54.50;24.80;42.60;;;;;;5135287;27;8810;-67
2021/09/27 00:27:15;;;;;;;;;64.75;53.50;24.80;42.30;;;;;;5135557;27;8783;-68
2021/09/27 00:29:40;;;;;;;;;64.75;52.75;24.90;42.50;;;;;;5135540;27;8886;-67
2021/09/27 00:32:06;;;;;;;;;65.00;53.75;25.00;42.10;;;;;;5133665;27;8748;-66
2021/09/27 00:34:32;;;;;;;;;58.50;49.25;25.00;41.90;;;;;;5135295;27;8954;-68
2021/09/27 00:36:59;;;;;;;;;61.25;51.25;25.00;41.40;;;;;;5135732;27;8752;-67
2021/09/27 00:39:24;;;;;;;;;65.25;53.00;24.80;41.60;;;;;;5135411;27;8763;-67
2021/09/27 00:41:51;;;;;;;;;61.00;51.25;24.90;41.30;;;;;;5135307;27;8783;-68
2021/09/27 00:44:16;;;;;;;;;61.00;50.00;24.70;41.00;;;;;;5135322;27;8768;-68
2021/09/27 00:46:42;;;;;;;;;59.50;49.50;24.50;41.00;;;;;;5135622;27;8782;-67
2021/09/27 00:49:08;;;;;;;;;63.25;52.50;24.40;41.20;;;;;;5135347;27;8860;-68
2021/09/27 00:51:38;;;;;;;;;58.50;48.50;24.30;41.50;;;;;;5135638;27;8755;-66
2021/09/27 00:54:14;;;;;;;;;60.00;49.50;24.40;41.50;;;;;;5135256;27;8840;-68
2021/09/27 00:56:47;;;;;;;;;52.25;44.25;24.30;41.30;;;;;;5135338;27;8790;-67
2021/09/27 00:59:14;;;;;;;;;58.00;48.25;24.40;41.40;;;;;;5135244;27;8771;-67
2021/09/27 01:01:40;;;;;;;;;55.00;46.00;24.40;41.40;;;;;;5133636;27;8792;-67
2021/09/27 01:04:07;;;;;;;;;61.75;51.75;24.50;41.50;;;;;;5135476;27;8783;-67
2021/09/27 01:07:09;;;;;;;;;59.00;50.00;24.40;41.60;;;;;;5135431;27;8759;-68
2021/09/27 01:10:22;;;;;;;;;57.75;47.75;24.40;41.70;;;;;;5135221;27;8798;-66
2021/09/27 01:13:02;;;;;;;;;54.75;46.50;24.40;41.80;;;;;;5135386;27;8764;-67
2021/09/27 01:15:46;;;;;;;;;58.75;49.00;24.40;41.90;;;;;;5135134;27;8902;-67
2021/09/27 01:18:51;;;;;;;;;57.50;47.50;24.40;41.90;;;;;;5135098;27;8756;-68
2021/09/27 01:21:40;;;;;;;;;56.50;46.25;24.30;42.10;;;;;;5135035;27;8755;-68
2021/09/27 01:24:42;;;;;;;;;53.75;45.75;24.30;42.20;;;;;;5131978;27;8921;-69
2021/09/27 01:27:29;;;;;;;;;58.75;48.75;24.30;42.20;;;;;;5135248;27;9521;-68
2021/09/27 01:30:10;;;;;;;;;59.25;50.00;24.30;42.10;;;;;;5135337;27;8755;-68
2021/09/27 01:32:46;;;;;;;;;62.00;52.25;24.40;42.10;;;;;;5134161;27;8815;-68
2021/09/27 01:35:30;;;;;;;;;60.00;49.50;24.30;42.00;;;;;;5134693;27;8788;-68
2021/09/27 01:38:02;;;;;;;;;56.75;47.25;24.40;41.90;;;;;;5134900;27;8768;-67
2021/09/27 01:40:46;;;;;;;;;59.25;50.00;24.40;42.00;;;;;;5134942;27;8747;-67
2021/09/27 01:43:30;;;;;;;;;58.50;49.50;24.20;42.00;;;;;;5134976;27;8866;-67
2021/09/27 01:46:04;;;;;;;;;61.00;50.25;24.20;42.10;;;;;;5138595;27;8782;-67
2021/09/27 01:48:58;;;;;;;;;57.00;48.00;24.20;42.20;;;;;;5138719;27;8889;-67
2021/09/27 01:51:39;;;;;;;;;55.25;46.25;24.10;42.30;;;;;;5138792;27;8763;-68
2021/09/27 01:54:32;;;;;;;;;55.00;46.00;24.10;42.50;;;;;;5138443;27;8789;-68
2021/09/27 01:57:01;;;;;;;;;55.00;46.00;24.00;42.60;;;;;;5120247;27;8789;-67
2021/09/27 01:59:26;;;;;;;;;59.75;49.75;24.10;42.40;;;;;;5138315;27;8789;-67
2021/09/27 02:02:24;;;;;;;;;59.50;49.00;24.20;42.30;;;;;;5134134;27;8768;-67
2021/09/27 02:04:53;;;;;;;;;56.75;47.25;24.20;42.20;;;;;;5119527;27;8799;-67
2021/09/27 02:07:21;;;;;;;;;56.50;47.25;24.20;42.30;;;;;;5138254;27;8764;-67
2021/09/27 02:09:56;;;;;;;;;58.75;48.75;24.20;42.30;;;;;;5138240;27;8759;-66
2021/09/27 02:12:30;;;;;;;;;59.25;49.75;24.20;42.50;;;;;;5138406;27;8756;-67
2021/09/27 02:15:11;;;;;;;;;59.75;51.00;24.20;42.40;;;;;;5138284;27;8829;-67
2021/09/27 02:18:15;;;;;;;;;57.50;48.50;24.20;42.70;;;;;;5138246;27;8802;-68
2021/09/27 02:20:47;;;;;;;;;64.25;53.25;24.10;42.70;;;;;;5138343;27;9440;-67
2021/09/27 02:23:34;;;;;;;;;59.50;49.50;24.00;43.90;;;;;;5137939;27;8784;-67
2021/09/27 02:26:00;;;;;;;;;56.75;48.50;24.10;42.90;;;;;;5138131;27;8791;-66
2021/09/27 02:28:27;;;;;;;;;59.00;49.75;24.10;42.90;;;;;;5119602;27;8852;-67
2021/09/27 02:31:06;;;;;;;;;59.00;48.75;24.00;43.00;;;;;;5118009;27;8878;-67
2021/09/27 02:34:06;;;;;;;;;58.50;48.50;24.00;43.10;;;;;;5137571;27;8815;-67
2021/09/27 02:36:46;;;;;;;;;58.25;49.00;24.00;43.30;;;;;;5119396;27;8828;-66
2021/09/27 02:39:32;;;;;;;;;59.00;49.00;23.80;43.50;;;;;;5119410;27;8767;-67
2021/09/27 02:42:10;;;;;;;;;60.50;50.50;23.90;43.40;;;;;;5137541;27;8751;-67
2021/09/27 02:44:37;;;;;;;;;61.50;51.50;24.00;43.40;;;;;;5137487;27;8756;-69
2021/09/27 02:47:07;;;;;;;;;58.50;48.75;24.00;43.30;;;;;;5137670;27;9535;-67
2021/09/27 02:49:43;;;;;;;;;61.25;51.00;24.00;43.40;;;;;;5137401;27;8756;-67
2021/09/27 02:52:12;;;;;;;;;62.50;52.25;23.90;43.30;;;;;;5137552;27;8756;-68
2021/09/27 02:55:02;;;;;;;;;63.25;51.25;23.90;43.70;;;;;;5136827;27;8790;-66
2021/09/27 02:57:35;;;;;;;;;45.50;39.25;23.90;43.70;;;;;;5137205;27;8756;-68
2021/09/27 03:00:10;;;;;;;;;62.50;51.50;23.80;43.80;;;;;;5135732;27;8768;-66
2021/09/27 03:02:53;;;;;;;;;62.75;52.75;23.90;43.70;;;;;;5137284;27;8783;-67
2021/09/27 03:05:45;;;;;;;;;64.00;53.25;23.80;43.70;;;;;;5137426;27;8751;-66
2021/09/27 03:08:40;;;;;;;;;63.50;52.50;23.60;44.30;;;;;;5137046;27;8759;-67
2021/09/27 03:11:23;;;;;;;;;66.75;54.75;23.60;44.30;;;;;;5137222;27;8792;-69
2021/09/27 03:14:08;;;;;;;;;64.50;53.50;23.50;44.40;;;;;;5136983;27;8771;-67
2021/09/27 03:17:03;;;;;;;;;68.25;56.75;23.50;44.40;;;;;;5137139;27;8786;-67
2021/09/27 03:19:47;;;;;;;;;66.00;54.00;23.30;45.00;;;;;;5136858;27;8756;-67
2021/09/27 03:22:16;;;;;;;;;64.25;53.00;23.40;44.90;;;;;;5136763;27;8795;-68
2021/09/27 03:25:11;;;;;;;;;70.00;57.25;23.30;45.20;;;;;;5136756;27;8759;-67
2021/09/27 03:28:09;;;;;;;;;63.75;52.50;23.40;45.10;;;;;;5136167;27;8779;-67
2021/09/27 03:31:00;;;;;;;;;70.50;57.75;23.50;44.80;;;;;;5130934;27;8799;-67
2021/09/27 03:33:44;;;;;;;;;71.25;61.50;23.40;44.80;;;;;;5136428;27;8839;-67
2021/09/27 03:36:42;;;;;;;;;67.50;57.50;23.40;44.90;;;;;;5136481;27;8791;-67
2021/09/27 03:39:22;;;;;;;;;74.50;65.75;23.30;45.00;;;;;;5136446;27;8798;-67
2021/09/27 03:41:52;;;;;;;;;72.50;62.50;23.30;45.10;;;;;;5136515;27;8739;-67
2021/09/27 03:44:33;;;;;;;;;76.00;68.00;23.30;45.30;;;;;;5136411;27;8767;-67
2021/09/27 03:47:19;;;;;;;;;80.00;72.00;23.40;45.20;;;;;;5136350;27;8755;-67
2021/09/27 03:49:58;;;;;;;;;78.00;69.50;23.30;45.30;;;;;;5136547;27;8787;-67
2021/09/27 03:53:00;;;;;;;;;79.75;75.50;23.20;45.60;;;;;;5136514;27;8744;-68
2021/09/27 03:55:48;;;;;;;;;77.00;72.75;23.20;46.00;;;;;;5136300;27;8795;-67
2021/09/27 03:58:18;;;;;;;;;80.75;76.25;23.20;46.00;;;;;;5136140;27;8740;-67
2021/09/27 04:00:51;;;;;;;;;79.00;74.00;23.20;45.90;;;;;;5134879;27;8806;-67
2021/09/27 04:03:38;;;;;;;;;77.75;72.50;23.30;45.70;;;;;;5135880;27;8792;-68
2021/09/27 04:06:34;;;;;;;;;77.00;74.50;23.40;45.60;;;;;;5135380;27;8767;-67
2021/09/27 04:09:23;;;;;;;;;82.75;80.75;23.30;45.80;;;;;;5136175;27;8872;-67
2021/09/27 04:12:09;;;;;;;;;81.50;78.25;23.30;45.80;;;;;;5136101;27;8751;-68
2021/09/27 04:14:40;;;;;;;;;85.75;82.25;23.30;45.70;;;;;;5135939;27;8815;-67
2021/09/27 04:17:09;;;;;;;;;82.25;77.00;23.40;45.40;;;;;;5135919;27;8783;-67
2021/09/27 04:19:50;;;;;;;;;82.75;80.50;23.30;45.40;;;;;;5136221;27;8755;-68
2021/09/27 04:22:34;;;;;;;;;83.25;81.00;23.20;45.60;;;;;;5135675;27;8795;-67
2021/09/27 04:25:02;;;;;;;;;80.75;77.00;23.30;45.50;;;;;;5135886;27;8786;-67
2021/09/27 04:27:55;;;;;;;;;80.25;77.25;23.30;45.30;;;;;;5134096;27;8843;-68
2021/09/27 04:30:49;;;;;;;;;75.00;66.00;23.30;45.30;;;;;;5134327;27;8751;-67
2021/09/27 04:33:39;;;;;;;;;69.50;59.00;23.10;45.60;;;;;;5135357;27;8811;-67
2021/09/27 04:36:27;;;;;;;;;64.50;53.75;23.00;46.00;;;;;;5135663;27;8960;-67
2021/09/27 04:38:58;;;;;;;;;60.00;50.25;22.90;46.50;;;;;;5117062;27;8800;-67
2021/09/27 04:41:53;;;;;;;;;59.25;49.25;22.90;46.50;;;;;;5113370;28;8770;-67
2021/09/27 04:45:06;;;;;;;;;50.75;43.50;23.00;46.50;;;;;;5106585;28;8822;-67
2021/09/27 04:47:59;;;;;;;;;52.50;44.75;23.00;46.60;;;;;;5052151;28;8764;-67
2021/09/27 04:50:31;;;;;;;;;54.50;46.50;22.90;47.10;;;;;;5049760;28;8774;-66
2021/09/27 04:53:11;;;;;;;;;57.75;48.50;22.80;47.10;;;;;;5043450;28;8807;-67
2021/09/27 04:56:07;;;;;;;;;61.00;51.00;22.80;47.00;;;;;;5036768;28;8838;-67
2021/09/27 04:59:05;;;;;;;;;60.25;50.25;22.90;47.00;;;;;;5035040;28;8987;-67
2021/09/27 05:01:52;;;;;;;;;54.75;46.50;23.00;46.60;;;;;;5032026;28;8760;-66
2021/09/27 05:04:42;;;;;;;;;54.75;45.75;23.10;46.30;;;;;;5031949;28;8794;-67
2021/09/27 05:07:30;;;;;;;;;55.75;47.50;23.20;46.30;;;;;;5032049;28;8767;-66
2021/09/27 05:10:14;;;;;;;;;55.50;47.50;23.20;46.20;;;;;;5032115;28;8791;-66
2021/09/27 05:13:10;;;;;;;;;55.50;47.25;23.20;46.20;;;;;;5032093;28;8861;-64
2021/09/27 05:15:50;;;;;;;;;57.50;48.25;23.20;46.10;;;;;;5032019;28;8831;-66
2021/09/27 05:18:28;;;;;;;;;57.25;48.25;23.30;46.10;;;;;;5063367;28;8803;-65
2021/09/27 05:20:59;;;;;;;;;57.50;48.50;23.30;46.10;;;;;;5098196;28;8744;-67
2021/09/27 05:23:59;;;;;;;;;56.75;47.50;23.40;45.90;;;;;;5098020;28;8780;-68
2021/09/27 05:26:47;;;;;;;;;54.00;46.00;23.40;45.80;;;;;;5098088;28;8752;-67
2021/09/27 05:29:22;;;;;;;;;56.50;47.75;23.20;46.10;;;;;;5098185;28;9504;-66
2021/09/27 05:31:51;;;;;;;;;55.50;47.00;23.30;46.10;;;;;;5097983;28;8760;-65
2021/09/27 05:34:44;;;;;;;;;56.50;48.00;23.40;45.90;;;;;;5097586;28;8908;-66
2021/09/27 05:37:21;;;;;;;;;59.00;49.00;23.40;45.60;;;;;;5042695;28;8811;-66
2021/09/27 05:40:14;;;;;;;;;60.50;50.75;23.40;45.40;;;;;;5098014;28;8891;-66
2021/09/27 05:43:08;;;;;;;;;57.75;48.75;23.40;45.40;;;;;;5097705;28;8772;-67
2021/09/27 05:45:53;;;;;;;;;58.25;48.50;23.40;45.70;;;;;;5097668;28;8779;-66
2021/09/27 05:48:31;;;;;;;;;53.50;45.25;23.40;45.70;;;;;;5097633;28;8772;-65
2021/09/27 05:51:11;;;;;;;;;55.25;47.25;23.40;45.70;;;;;;5097546;28;8779;-68
2021/09/27 05:54:06;;;;;;;;;53.25;46.00;23.50;45.70;;;;;;5097547;28;8763;-68
2021/09/27 05:57:06;;;;;;;;;51.00;43.75;23.60;45.50;;;;;;5071619;28;9438;-66
2021/09/27 06:00:09;;;;;;;;;53.00;44.75;23.60;45.50;;;;;;5090518;28;8780;-68
2021/09/27 06:03:03;;;;;;;;;47.00;40.75;23.70;45.50;;;;;;5061127;28;8934;-67
2021/09/27 06:05:40;;;;;;;;;53.25;45.50;23.70;45.40;;;;;;5097317;28;8775;-69
2021/09/27 06:08:44;;;;;;;;;50.00;42.75;23.70;45.80;;;;;;5097521;28;8764;-68
2021/09/27 06:11:16;;;;;;;;;52.50;45.25;23.70;45.60;;;;;;4975860;28;8788;-69
2021/09/27 06:13:47;;;;;;;;;52.50;44.00;23.90;45.60;;;;;;4976048;28;8865;-66
2021/09/27 06:16:40;;;;;;;;;52.50;44.50;23.90;45.50;;;;;;4975890;28;8901;-67
2021/09/27 06:19:28;;;;;;;;;50.50;43.00;24.00;45.50;;;;;;4975982;28;8895;-64
2021/09/27 06:21:56;;;;;;;;;48.50;41.75;24.00;45.60;;;;;;4975868;28;8863;-66
2021/09/27 06:24:45;;;;;;;;;52.25;45.25;24.10;45.50;;;;;;4975845;28;8773;-64
2021/09/27 06:27:22;;;;;;;;;52.50;45.50;24.10;45.60;;;;;;4975753;28;8903;-64
2021/09/27 06:30:09;;;;;;;;;54.75;46.00;24.10;45.70;;;;;;4974988;28;8780;-64
2021/09/27 06:32:55;;;;;;;;;50.00;42.75;24.20;45.90;;;;;;4975527;28;8785;-65
2021/09/27 06:35:26;;;;;;;;;55.25;46.50;24.30;45.80;;;;;;4975532;28;8907;-64
2021/09/27 06:37:53;;;;;;;;;56.50;47.50;24.30;45.90;;;;;;4975612;28;8792;-64
2021/09/27 06:40:21;;;;;;;;;57.00;47.25;24.40;45.90;;;;;;4975604;28;8773;-64
2021/09/27 06:42:47;;;;;;;;;50.75;43.50;24.40;45.90;;;;;;5078297;28;8764;-64
2021/09/27 06:45:13;;;;;;;;;46.50;40.25;24.50;45.80;;;;;;5096738;28;9409;-64
2021/09/27 06:47:39;;;;;;;;;48.75;41.50;24.50;45.90;;;;;;5096714;28;8790;-64
2021/09/27 06:50:08;;;;;;;;;47.67;41.67;24.40;46.20;;;;;;5096702;28;9456;-64
2021/09/27 06:52:34;;;;;;;;;41.00;36.33;24.50;46.20;;;;;;5096567;28;9448;-64
2021/09/27 06:55:00;;;;;;;;;42.00;37.00;24.60;47.10;;;;;;5096256;28;8852;-65
2021/09/27 06:57:26;;;;;;;;;41.67;37.33;24.60;46.30;;;;;;5096275;28;8776;-64
2021/09/27 06:59:52;;;;;;;;;41.67;37.33;24.70;46.00;;;;;;5096463;28;8771;-67
2021/09/27 07:02:18;;;;;;;;;40.00;36.67;24.80;45.90;;;;;;5078103;28;8775;-65
2021/09/27 07:04:44;;;;;;;;;40.33;35.67;24.80;45.90;;;;;;5095855;28;8779;-66
2021/09/27 07:07:11;;;;;;;;;41.00;37.33;25.00;45.70;;;;;;5095944;28;8771;-66
2021/09/27 07:09:38;;;;;;;;;41.00;37.00;24.90;46.00;;;;;;5096152;28;9520;-64
2021/09/27 07:12:05;;;;;;;;;43.00;37.33;25.00;45.80;;;;;;5109492;28;8758;-65
2021/09/27 07:14:31;;;;;;;;;42.67;37.33;25.20;45.60;;;;;;5113156;28;8754;-65
2021/09/27 07:16:57;;;;;;;;;38.67;35.33;25.20;45.60;;;;;;5116314;28;8893;-65
2021/09/27 07:19:23;;;;;;;;;50.00;42.67;25.20;45.40;;;;;;5116155;28;8854;-65
2021/09/27 07:21:49;;;;;;;;;44.00;38.00;25.30;45.30;;;;;;5116406;28;8766;-65
2021/09/27 07:24:15;;;;;;;;;43.00;38.33;25.40;45.30;;;;;;5116270;28;8761;-65
2021/09/27 07:26:41;;;;;;;;;48.00;41.33;25.50;45.00;;;;;;5115985;28;8823;-64
2021/09/27 07:29:08;;;;;;;;;41.67;36.67;25.60;44.90;;;;;;5116166;28;8754;-66
2021/09/27 07:31:34;;;;;;;;;45.00;39.00;25.60;44.90;;;;;;5115847;28;8762;-65
2021/09/27 07:34:03;;;;;;;;;46.00;40.33;25.70;44.80;;;;;;5115738;28;8841;-65
2021/09/27 07:36:30;;;;;;;;;42.33;37.33;25.70;44.70;;;;;;5116023;28;8829;-65
2021/09/27 07:38:56;;;;;;;;;47.00;41.33;25.80;44.70;;;;;;5097721;28;8809;-66
2021/09/27 07:41:24;;;;;;;;;42.00;38.00;26.00;44.30;;;;;;5114759;28;8777;-65
2021/09/27 07:43:50;;;;;;;;;35.67;32.67;26.00;44.40;;;;;;5115630;28;9434;-66
2021/09/27 07:46:18;;;;;;;;;32.33;32.00;26.00;44.50;;;;;;5115349;28;8800;-66
2021/09/27 07:48:45;;;;;;;;;32.33;31.00;26.10;44.30;;;;;;5115572;28;8790;-65
2021/09/27 07:51:10;;;;;;;;;32.00;31.00;26.20;44.20;;;;;;5115810;28;8754;-65
2021/09/27 07:53:36;;;;;;;;;29.00;29.00;26.10;44.20;;;;;;5115483;28;8866;-68
2021/09/27 07:56:02;;;;;;;;;28.67;28.67;26.10;44.10;;;;;;5115646;28;8793;-66
2021/09/27 07:58:28;;;;;;;;;26.33;26.33;26.10;43.80;;;;;;5115643;28;8762;-66
2021/09/27 08:00:54;;;;;;;;;29.33;29.33;26.20;43.90;;;;;;5114750;28;8770;-67
2021/09/27 08:03:21;;;;;;;;;30.33;30.33;26.10;44.00;;;;;;5114162;28;9455;-66
2021/09/27 08:05:46;;;;;;;;;27.33;27.33;26.20;43.80;;;;;;5113744;28;8758;-66
2021/09/27 08:08:12;;;;;;;;;29.67;29.67;26.40;43.70;;;;;;5114835;28;8828;-67
2021/09/27 08:10:40;;;;;;;;;30.33;30.33;26.30;43.70;;;;;;5115521;28;8839;-66
2021/09/27 08:13:07;;;;;;;;;27.33;27.33;26.60;43.40;;;;;;5115086;28;8781;-67
2021/09/27 08:15:36;;;;;;;;;30.33;30.33;26.60;43.10;;;;;;5115157;28;8994;-66
2021/09/27 08:18:04;;;;;;;;;31.33;31.33;26.70;43.00;;;;;;5115608;28;8920;-69
2021/09/27 08:20:39;;;;;;;;;32.67;31.33;26.80;42.70;;;;;;5114989;28;8843;-65
2021/09/27 08:23:05;;;;;;;;;29.33;29.33;26.80;42.70;;;;;;5114645;28;8758;-64
2021/09/27 08:25:31;;;;;;;;;30.00;30.00;26.90;42.60;;;;;;5114604;28;8764;-64
2021/09/27 08:27:59;;;;;;;;;28.67;28.67;27.00;42.10;;;;;;5115106;28;8766;-64
2021/09/27 08:30:35;;;;;;;;;30.67;30.67;27.10;42.00;;;;;;5114993;28;8773;-64
2021/09/27 08:33:01;;;;;;;;;28.33;28.33;27.20;41.40;;;;;;5114841;28;8805;-65
2021/09/27 08:35:29;;;;;;;;;28.67;28.67;27.30;41.30;;;;;;5115033;28;8846;-64
2021/09/27 08:37:56;;;;;;;;;31.67;30.67;27.40;41.00;;;;;;5114934;28;8878;-65
2021/09/27 08:40:51;;;;;;;;;27.67;27.67;27.40;40.10;;;;;;5115192;28;8838;-64
2021/09/27 08:43:29;;;;;;;;;30.00;30.00;27.50;40.20;;;;;;5114710;28;8779;-64
2021/09/27 08:46:01;;;;;;;;;28.00;28.00;27.60;39.80;;;;;;5115156;28;8742;-65
2021/09/27 08:48:36;;;;;;;;;28.67;28.67;27.60;39.90;;;;;;5114795;28;8778;-68
2021/09/27 08:51:03;;;;;;;;;27.67;27.67;27.80;39.90;;;;;;5114974;28;8766;-65
2021/09/27 08:53:36;;;;;;;;;30.00;30.00;28.00;39.50;;;;;;5117171;28;9407;-65
2021/09/27 08:56:16;;;;;;;;;32.00;32.00;28.00;38.60;;;;;;5118937;28;8812;-64
2021/09/27 08:58:47;;;;;;;;;31.33;30.33;28.00;38.30;;;;;;5119301;28;8769;-64
2021/09/27 09:01:18;;;;;;;;;32.33;32.33;28.20;37.90;;;;;;5119226;28;8742;-64
2021/09/27 09:04:04;;;;;;;;;30.33;30.33;28.30;37.40;;;;;;5119120;28;8928;-66
2021/09/27 09:06:45;;;;;;;;;38.00;35.00;28.40;37.50;;;;;;5119012;28;8788;-62
2021/09/27 09:09:20;;;;;;;;;35.00;33.67;28.60;37.30;;;;;;5118684;28;8861;-63
2021/09/27 09:12:03;;;;;;;;;32.00;32.00;28.50;36.50;;;;;;5118662;28;8806;-66
2021/09/27 09:14:43;;;;;;;;;33.67;32.67;28.70;36.70;;;;;;5118642;28;8784;-62
2021/09/27 09:17:32;;;;;;;;;33.67;33.33;28.70;36.50;;;;;;5100618;28;8762;-62
2021/09/27 09:20:01;;;;;;;;;37.67;35.00;28.80;35.90;;;;;;5118522;28;8784;-64
2021/09/27 09:22:28;;;;;;;;;42.33;37.33;28.90;35.60;;;;;;5118366;28;8796;-65
2021/09/27 09:24:55;;;;;;;;;35.00;33.00;28.90;35.40;;;;;;5118489;28;8772;-64
2021/09/27 09:27:21;;;;;;;;;39.67;36.00;29.00;34.50;;;;;;5118606;28;8773;-64
2021/09/27 09:29:47;;;;;;;;;48.00;41.33;29.10;34.80;;;;;;5118355;28;8761;-64
2021/09/27 09:32:27;;;;;;;;;47.67;41.00;29.20;34.50;;;;;;5118291;28;8749;-64
2021/09/27 09:35:12;;;;;;;;;45.33;39.33;29.40;34.40;;;;;;5118095;28;8797;-60
2021/09/27 09:37:41;;;;;;;;;47.00;40.00;29.50;34.50;;;;;;5118447;28;8766;-62
2021/09/27 09:40:19;;;;;;;;;50.00;43.00;29.60;34.40;;;;;;5118509;28;8781;-62
2021/09/27 09:43:08;;;;;;;;;42.33;38.67;29.70;34.00;;;;;;5118144;28;8761;-62
2021/09/27 09:45:40;;;;;;;;;38.67;35.67;29.70;32.80;;;;;;5118095;28;8765;-61
2021/09/27 09:48:13;;;;;;;;;50.00;43.00;29.90;33.20;;;;;;5118102;28;8798;-61
2021/09/27 09:50:39;;;;;;;;;46.33;40.67;30.00;33.60;;;;;;5117905;28;8757;-62
2021/09/27 09:53:20;;;;;;;;;42.67;37.67;30.10;33.20;;;;;;5116485;28;8750;-61
2021/09/27 09:56:09;;;;;;;;;42.67;37.67;30.20;32.90;;;;;;5117505;28;8813;-62
2021/09/27 09:58:44;;;;;;;;;34.33;33.00;30.30;32.40;;;;;;5117902;28;8757;-62
2021/09/27 10:01:26;;;;;;;;;38.00;35.00;30.50;32.00;;;;;;5118049;28;8738;-62
2021/09/27 10:04:09;;;;;;;;;35.33;32.67;30.50;31.20;;;;;;5117399;28;8797;-64
2021/09/27 10:06:57;;;;;;;;;42.67;37.33;30.60;31.40;;;;;;5117553;28;8778;-64
2021/09/27 10:09:46;;;;;;;;;36.00;34.67;30.80;31.50;;;;;;5118046;28;8780;-62
2021/09/27 10:12:33;;;;;;;;;36.67;33.67;30.90;30.20;;;;;;5117831;28;9610;-62
2021/09/27 10:14:59;;;;;;;;;37.00;33.67;31.20;30.30;;;;;;5117146;28;8807;-62
2021/09/27 10:17:32;;;;;;;;;33.00;32.00;31.50;29.80;;;;;;5117513;28;8896;-62
2021/09/27 10:20:06;;;;;;;;;43.67;38.00;31.80;29.40;;;;;;5117447;28;8853;-66
2021/09/27 10:22:37;;;;;;;;;26.67;26.67;32.10;29.40;;;;;;5117425;28;8769;-63
2021/09/27 10:25:34;;;;;;;;;34.00;32.00;32.30;28.80;;;;;;5117617;28;9562;-65
2021/09/27 10:28:01;;;;;;;;;36.33;33.33;32.60;28.50;;;;;;5117130;28;8777;-64
2021/09/27 10:30:47;;;;;;;;;29.33;29.33;33.00;28.10;;;;;;5117253;28;8781;-64
2021/09/27 10:33:19;;;;;;;;;26.67;26.67;33.30;27.40;;;;;;5116908;28;8801;-64
2021/09/27 10:35:58;;;;;;;;;29.67;29.33;33.40;26.40;;;;;;5117035;28;8850;-64
2021/09/27 10:38:49;;;;;;;;;28.67;28.67;33.20;26.40;;;;;;5117420;28;8869;-64
2021/09/27 10:41:23;;;;;;;;;24.33;24.33;33.40;26.30;;;;;;5117343;28;8754;-64
2021/09/27 10:43:52;;;;;;;;;28.00;28.00;33.30;26.10;;;;;;5117001;28;8784;-64
2021/09/27 10:46:21;;;;;;;;;26.33;26.33;33.80;26.40;;;;;;5117151;28;8817;-64
2021/09/27 10:48:51;;;;;;;;;25.00;25.00;34.20;26.10;;;;;;5116764;28;8769;-64
2021/09/27 10:51:24;;;;;;;;;29.00;29.00;34.30;25.20;;;;;;5116736;28;8750;-64
2021/09/27 10:53:52;;;;;;;;;25.00;25.00;34.40;25.10;;;;;;5117373;28;8757;-64
2021/09/27 10:56:39;;;;;;;;;25.67;25.67;34.70;25.00;;;;;;5116446;28;8812;-64
2021/09/27 10:59:14;;;;;;;;;28.33;28.33;34.80;24.70;;;;;;5116440;28;11453;-64
2021/09/27 11:01:53;;;;;;;;;27.67;27.67;35.10;24.50;;;;;;5116802;28;8750;-64
2021/09/27 11:04:43;;;;;;;;;27.67;27.67;35.50;24.60;;;;;;5116466;28;8908;-64
2021/09/27 11:07:30;;;;;;;;;22.67;22.67;35.90;24.20;;;;;;5116588;28;8758;-64
2021/09/27 11:09:59;;;;;;;;;23.00;23.00;36.30;23.60;;;;;;5116282;28;8793;-64
2021/09/27 11:12:25;;;;;;;;;24.67;24.67;36.70;23.00;;;;;;5116461;28;11464;-64
2021/09/27 11:14:56;;;;;;;;;23.00;23.00;36.90;22.90;;;;;;5116168;28;11458;-65
2021/09/27 11:17:39;;;;;;;;;27.00;27.00;37.20;22.70;;;;;;5116312;28;9533;-65
2021/09/27 11:20:16;;;;;;;;;21.33;21.33;37.50;22.90;;;;;;5116217;28;12437;-65
2021/09/27 11:22:43;;;;;;;;;19.67;19.67;37.60;22.00;;;;;;5115003;28;12080;-65
2021/09/27 11:25:09;;;;;;;;;22.00;22.00;37.70;21.60;;;;;;5115377;28;11438;-63
2021/09/27 11:27:37;;;;;;;;;24.67;24.67;38.10;21.90;;;;;;5115611;28;11602;-64
2021/09/27 11:30:26;;;;;;;;;24.00;23.00;39.30;20.90;;;;;;5115404;28;8757;-66
2021/09/27 11:32:58;;;;;;;;;18.50;18.50;42.90;18.10;;;;;;5115175;28;11462;-65
2021/09/27 11:35:38;;;;;;;;;19.75;19.75;46.00;16.30;;;;;;5107237;28;11542;-65
2021/09/27 11:38:07;;;;;;;;;23.33;23.33;47.80;15.10;;;;;;5115254;28;11437;-65
2021/09/27 11:40:39;;;;;;;;;16.25;16.25;49.20;14.00;;;;;;5114861;28;11520;-64
2021/09/27 11:43:26;;;;;;;;;18.67;18.67;50.20;13.40;;;;;;5111084;28;11458;-65
2021/09/27 11:46:07;;;;;;;;;18.50;18.50;49.90;13.20;;;;;;5115130;28;11446;-62
2021/09/27 11:48:41;;;;;;;;;14.75;14.75;50.60;13.10;;;;;;5095379;28;11467;-62
2021/09/27 11:51:07;;;;;;;;;16.00;16.00;51.30;12.30;;;;;;5106030;28;11443;-63
2021/09/27 11:53:59;;;;;;;;;12.00;12.00;51.20;12.10;;;;;;5115855;28;11530;-63
2021/09/27 11:56:46;;;;;;;;;14.50;14.50;52.00;12.20;;;;;;5115500;28;8816;-63
2021/09/27 11:59:15;;;;;;;;;13.00;13.00;52.60;11.90;;;;;;5115056;28;11452;-63
2021/09/27 12:01:43;;;;;;;;;13.50;13.50;52.70;11.30;;;;;;5114656;28;11421;-65
2021/09/27 12:04:48;;;;;;;;;15.25;15.25;52.70;11.50;;;;;;5115126;28;11456;-65
2021/09/27 12:07:17;;;;;;;;;14.75;14.75;53.50;11.60;;;;;;5065252;28;11419;-65
2021/09/27 12:09:56;;;;;;;;;14.75;14.75;53.90;11.00;;;;;;5115122;28;11470;-64
2021/09/27 12:12:25;;;;;;;;;16.00;16.00;54.20;11.00;;;;;;5114305;28;11435;-65
2021/09/27 12:14:52;;;;;;;;;15.00;15.00;54.40;10.80;;;;;;5115173;28;11492;-65
2021/09/27 12:17:21;;;;;;;;;16.00;16.00;54.50;10.80;;;;;;5115039;28;11440;-64
2021/09/27 12:19:54;;;;;;;;;16.75;16.75;54.70;10.50;;;;;;5114510;28;11441;-64
2021/09/27 12:22:33;;;;;;;;;17.25;17.00;55.00;10.60;;;;;;5115250;28;11436;-65
2021/09/27 12:25:03;;;;;;;;;18.00;16.75;55.20;10.30;;;;;;5115222;28;11459;-65
2021/09/27 12:27:30;;;;;;;;;11.25;11.25;55.30;10.30;;;;;;5113839;28;11558;-64
2021/09/27 12:29:59;;;;;;;;;11.00;11.00;55.50;10.10;;;;;;5114886;28;11438;-64
2021/09/27 12:32:46;;;;;;;;;15.75;15.75;55.40;9.70;;;;;;5114590;28;11409;-65
2021/09/27 12:35:20;;;;;;;;;15.00;15.00;56.00;10.00;;;;;;5114071;28;11454;-63
2021/09/27 12:37:52;;;;;;;;;14.00;14.00;55.90;9.70;;;;;;5100679;28;11446;-63
2021/09/27 12:40:18;;;;;;;;;16.00;16.00;55.40;9.90;;;;;;5112225;28;11386;-63
2021/09/27 12:42:54;;;;;;;;;15.25;15.25;55.30;9.90;;;;;;5115016;28;12106;-63
2021/09/27 12:45:30;;;;;;;;;12.25;12.25;55.80;10.00;;;;;;5113894;28;13013;-63
2021/09/27 12:48:00;;;;;;;;;17.00;17.00;56.20;9.80;;;;;;5114175;28;11400;-65
2021/09/27 12:50:30;;;;;;;;;17.33;17.33;56.60;9.70;;;;;;5105304;28;11497;-65
2021/09/27 12:53:00;;;;;;;;;51.00;42.25;56.90;9.70;;;;;;5114853;28;11454;-69
2021/09/27 12:55:35;;;;;;;;;399.00;395.40;57.00;9.80;;;;;;5114399;28;8884;-64
2021/09/27 12:58:08;;;;;;;;;23.33;23.33;57.20;9.90;;;;;;5114358;28;8896;-64
2021/09/27 13:00:40;;;;;;;;;26.33;20.00;57.30;9.40;;;;;;5114032;28;8792;-64
2021/09/27 13:03:08;;;;;;;;;9.67;9.67;57.30;10.10;;;;;;5114992;28;8793;-72
2021/09/27 13:06:03;;;;;;;;;20.67;19.33;57.10;9.50;;;;;;5095353;28;8890;-72
2021/09/27 13:08:39;;;;;;;;;17.00;15.33;57.00;9.60;;;;;;5108031;28;11477;-63
2021/09/27 13:11:19;;;;;;;;;34.33;30.00;56.90;9.30;;;;;;5110213;28;12123;-63
2021/09/27 13:14:05;;;;;;;;;17.67;17.67;57.00;10.20;;;;;;5114140;28;8870;-63
2021/09/27 13:16:38;;;;;;;;;31.33;29.00;57.00;9.50;;;;;;5114807;28;8887;-62
2021/09/27 13:19:06;;;;;;;;;31.33;29.33;54.40;10.50;;;;;;5114473;28;8776;-63
2021/09/27 13:21:47;;;;;;;;;21.67;20.33;51.10;11.90;;;;;;5114138;28;8765;-63
2021/09/27 13:24:22;;;;;;;;;7.00;7.00;51.00;12.30;;;;;;5114078;28;8796;-62